createdAt,value
2023-02-13T00:00:56.244Z,20.43
2023-02-13T00:03:42.888Z,21.63
2023-02-13T00:06:27.918Z,20.83
2023-02-13T00:09:12.911Z,19.40
2023-02-13T00:11:58.127Z,21.17
2023-02-13T00:14:43.454Z,20.03
2023-02-13T00:17:28.528Z,20.80
2023-02-13T00:20:13.626Z,20.87
2023-02-13T00:23:02.056Z,21.73
2023-02-13T00:25:47.339Z,21.50
2023-02-13T00:28:32.441Z,22.17
2023-02-13T00:31:20.268Z,21.43
2023-02-13T00:34:05.640Z,21.60
2023-02-13T00:36:50.665Z,21.63
2023-02-13T00:39:35.557Z,21.20
2023-02-13T00:42:20.906Z,21.13
2023-02-13T00:45:06.104Z,21.20
2023-02-13T00:47:51.318Z,20.73
2023-02-13T00:50:36.667Z,21.03
2023-02-13T00:53:34.167Z,21.20
2023-02-13T00:56:19.245Z,20.83
2023-02-13T00:59:04.163Z,21.00
2023-02-13T01:01:49.646Z,21.17
2023-02-13T01:04:35.017Z,21.13
2023-02-13T01:07:20.517Z,20.33
2023-02-13T01:10:06.661Z,20.63
2023-02-13T01:12:52.010Z,20.40
2023-02-13T01:15:37.567Z,19.47
2023-02-13T01:18:23.373Z,18.43
2023-02-13T01:21:15.180Z,18.90
2023-02-13T01:24:03.727Z,19.23
2023-02-13T01:26:48.758Z,19.83
2023-02-13T01:29:34.450Z,19.07
2023-02-13T01:32:20.087Z,18.70
2023-02-13T01:35:06.997Z,18.70
2023-02-13T01:37:52.071Z,17.80
2023-02-13T01:40:36.931Z,17.70
2023-02-13T01:43:22.355Z,18.03
2023-02-13T01:46:07.303Z,18.53
2023-02-13T01:48:56.086Z,17.83
2023-02-13T01:51:43.004Z,18.37
2023-02-13T01:54:33.669Z,18.07
2023-02-13T01:57:22.888Z,17.73
2023-02-13T02:00:14.512Z,18.37
2023-02-13T02:03:05.234Z,18.23
2023-02-13T02:05:51.624Z,18.37
2023-02-13T02:08:37.270Z,18.17
2023-02-13T02:11:47.278Z,19.20
2023-02-13T02:14:32.749Z,19.10
2023-02-13T02:17:19.626Z,19.40
2023-02-13T02:20:41.989Z,18.57
2023-02-13T02:23:42.457Z,18.97
2023-02-13T02:26:42.869Z,19.87
2023-02-13T02:29:49.818Z,19.00
2023-02-13T02:32:57.404Z,19.47
2023-02-13T02:36:01.124Z,19.60
2023-02-13T02:39:04.750Z,19.17
2023-02-13T02:42:10.136Z,19.80
2023-02-13T02:45:13.675Z,19.40
2023-02-13T02:48:17.852Z,19.63
2023-02-13T02:51:35.369Z,18.97
2023-02-13T02:54:34.672Z,19.67
2023-02-13T02:57:30.221Z,18.90
2023-02-13T03:00:22.393Z,18.57
2023-02-13T03:03:34.242Z,19.60
2023-02-13T03:06:34.520Z,19.63
2023-02-13T03:09:25.395Z,18.93
2023-02-13T03:12:15.092Z,19.67
2023-02-13T03:15:00.134Z,18.97
2023-02-13T03:17:45.553Z,19.03
2023-02-13T03:21:00.625Z,18.30
2023-02-13T03:24:23.377Z,18.07
2023-02-13T03:27:26.924Z,18.73
2023-02-13T03:30:35.557Z,19.07
2023-02-13T03:33:39.569Z,18.67
2023-02-13T03:36:59.437Z,18.67
2023-02-13T03:40:03.166Z,19.50
2023-02-13T03:42:56.657Z,19.07
2023-02-13T03:45:46.591Z,17.50
2023-02-13T03:48:36.297Z,18.83
2023-02-13T03:51:27.963Z,17.40
2023-02-13T03:54:39.670Z,17.20
2023-02-13T03:57:27.356Z,16.67
2023-02-13T04:00:14.838Z,16.60
2023-02-13T04:03:18.660Z,17.13
2023-02-13T04:06:09.361Z,16.73
2023-02-13T04:08:54.331Z,16.93
2023-02-13T04:11:49.634Z,16.80
2023-02-13T04:14:43.749Z,16.60
2023-02-13T04:17:59.180Z,17.63
2023-02-13T04:20:44.478Z,16.67
2023-02-13T04:23:29.786Z,17.10
2023-02-13T04:26:19.380Z,15.87
2023-02-13T04:29:05.741Z,16.03
2023-02-13T04:31:51.608Z,16.10
2023-02-13T04:34:37.789Z,16.20
2023-02-13T04:37:23.074Z,16.47
2023-02-13T04:40:09.107Z,16.77
2023-02-13T04:42:54.231Z,16.83
2023-02-13T04:45:39.226Z,17.03
2023-02-13T04:48:24.476Z,16.77
2023-02-13T04:51:09.356Z,16.80
2023-02-13T04:53:54.697Z,15.90
2023-02-13T04:56:39.864Z,17.13
2023-02-13T04:59:25.066Z,16.20
2023-02-13T05:02:10.431Z,16.97
2023-02-13T05:04:55.751Z,17.10
2023-02-13T05:07:41.992Z,16.50
2023-02-13T05:10:27.965Z,16.03
2023-02-13T05:13:13.397Z,17.90
2023-02-13T05:15:58.906Z,17.10
2023-02-13T05:18:44.421Z,16.70
2023-02-13T05:21:29.765Z,16.97
2023-02-13T05:24:14.719Z,17.37
2023-02-13T05:27:00.322Z,16.57
2023-02-13T05:29:45.579Z,16.97
2023-02-13T05:32:30.648Z,16.80
2023-02-13T05:35:15.693Z,15.90
2023-02-13T05:38:01.073Z,16.43
2023-02-13T05:40:46.187Z,17.17
2023-02-13T05:43:31.689Z,17.00
2023-02-13T05:46:17.006Z,16.97
2023-02-13T05:49:04.812Z,16.67
2023-02-13T05:51:50.418Z,16.20
2023-02-13T05:54:35.224Z,17.50
2023-02-13T05:57:20.254Z,15.90
2023-02-13T06:00:06.444Z,16.63
2023-02-13T06:02:51.843Z,16.60
2023-02-13T06:05:37.444Z,17.27
2023-02-13T06:08:23.522Z,16.37
2023-02-13T06:11:09.901Z,16.13
2023-02-13T06:13:55.173Z,16.83
2023-02-13T06:16:41.213Z,16.07
2023-02-13T06:19:26.297Z,16.10
2023-02-13T06:22:14.152Z,15.57
2023-02-13T06:24:59.349Z,15.40
2023-02-13T06:27:44.574Z,16.13
2023-02-13T06:30:31.182Z,16.97
2023-02-13T06:33:16.445Z,16.60
2023-02-13T06:36:01.471Z,16.03
2023-02-13T06:38:46.659Z,15.20
2023-02-13T06:41:31.572Z,15.50
2023-02-13T06:44:16.358Z,15.17
2023-02-13T06:47:01.846Z,14.73
2023-02-13T06:49:47.092Z,14.03
2023-02-13T06:52:32.493Z,13.43
2023-02-13T06:55:19.081Z,15.53
2023-02-13T06:58:04.225Z,12.43
2023-02-13T07:00:55.073Z,13.40
2023-02-13T07:03:40.170Z,13.63
2023-02-13T07:06:25.532Z,12.97
2023-02-13T07:09:11.038Z,12.40
2023-02-13T07:11:56.032Z,12.43
2023-02-13T07:14:41.472Z,12.97
2023-02-13T07:17:27.075Z,12.50
2023-02-13T07:20:12.731Z,12.23
2023-02-13T07:22:59.681Z,12.60
2023-02-13T07:25:44.761Z,10.60
2023-02-13T07:28:30.317Z,11.97
2023-02-13T07:31:16.206Z,9.70
2023-02-13T07:34:01.541Z,10.30
2023-02-13T07:36:46.770Z,9.40
2023-02-13T07:39:32.177Z,9.57
2023-02-13T07:42:17.116Z,9.10
2023-02-13T07:45:02.446Z,9.50
2023-02-13T07:47:48.062Z,8.40
2023-02-13T07:50:33.248Z,8.13
2023-02-13T07:53:18.486Z,7.60
2023-02-13T07:56:07.972Z,7.40
2023-02-13T07:58:53.013Z,8.37
2023-02-13T08:01:38.242Z,7.53
2023-02-13T08:04:25.415Z,8.83
2023-02-13T08:07:11.831Z,8.17
2023-02-13T08:09:56.931Z,8.77
2023-02-13T08:12:42.946Z,8.13
2023-02-13T08:15:28.034Z,7.40
2023-02-13T08:18:13.232Z,7.33
2023-02-13T08:20:58.508Z,7.20
2023-02-13T08:23:43.889Z,7.37
2023-02-13T08:26:31.429Z,6.30
2023-02-13T08:29:16.495Z,6.60
2023-02-13T08:32:01.543Z,6.20
2023-02-13T08:34:46.948Z,5.83
2023-02-13T08:37:32.177Z,6.47
2023-02-13T08:40:17.778Z,6.27
2023-02-13T08:43:04.374Z,6.00
2023-02-13T08:45:49.876Z,5.90
2023-02-13T08:48:35.332Z,5.50
2023-02-13T08:51:20.874Z,6.00
2023-02-13T08:54:06.122Z,5.40
2023-02-13T08:56:51.475Z,6.03
2023-02-13T08:59:36.763Z,6.33
2023-02-13T09:02:21.684Z,6.17
2023-02-13T09:05:07.226Z,6.57
2023-02-13T09:07:53.488Z,6.40
2023-02-13T09:10:38.293Z,6.37
2023-02-13T09:13:23.340Z,6.63
2023-02-13T09:16:08.652Z,7.13
2023-02-13T09:18:54.068Z,7.07
2023-02-13T09:21:38.980Z,7.37
2023-02-13T09:24:24.425Z,7.20
2023-02-13T09:27:09.973Z,7.53
2023-02-13T09:29:55.405Z,7.00
2023-02-13T09:32:41.812Z,6.73
2023-02-13T09:35:27.420Z,7.60
2023-02-13T09:38:12.672Z,6.67
2023-02-13T09:41:02.114Z,7.47
2023-02-13T09:43:50.466Z,6.63
2023-02-13T09:46:38.160Z,7.40
2023-02-13T09:49:28.490Z,7.57
2023-02-13T09:52:13.640Z,7.47
2023-02-13T09:54:58.914Z,6.50
2023-02-13T09:58:06.234Z,7.03
2023-02-13T10:00:55.977Z,7.20
2023-02-13T10:03:46.820Z,7.53
2023-02-13T10:06:37.377Z,7.40
2023-02-13T10:09:33.110Z,7.23
2023-02-13T10:12:46.254Z,7.27
2023-02-13T10:15:44.512Z,7.47
2023-02-13T10:18:42.877Z,6.97
2023-02-13T10:21:36.210Z,6.73
2023-02-13T10:24:44.565Z,7.03
2023-02-13T10:27:37.708Z,7.13
2023-02-13T10:30:30.730Z,7.10
2023-02-13T10:33:30.297Z,6.80
2023-02-13T10:36:23.416Z,6.17
2023-02-13T10:39:24.455Z,7.07
2023-02-13T10:42:15.628Z,7.03
2023-02-13T10:45:10.777Z,6.40
2023-02-13T10:48:08.122Z,6.37
2023-02-13T10:51:22.332Z,6.83
2023-02-13T10:54:16.549Z,6.80
2023-02-13T10:57:19.959Z,7.10
2023-02-13T11:00:32.733Z,6.93
2023-02-13T11:03:20.991Z,7.00
2023-02-13T11:06:09.046Z,7.20
2023-02-13T11:08:54.280Z,7.00
2023-02-13T11:11:42.047Z,7.30
2023-02-13T11:14:27.321Z,7.87
2023-02-13T11:17:18.186Z,7.97
2023-02-13T11:20:08.104Z,8.30
2023-02-13T11:22:53.542Z,7.93
2023-02-13T11:25:38.961Z,8.17
2023-02-13T11:28:25.590Z,8.50
2023-02-13T11:31:30.158Z,8.60
2023-02-13T11:34:34.310Z,8.50
2023-02-13T11:37:24.062Z,8.67
2023-02-13T11:40:31.750Z,8.30
2023-02-13T11:43:29.910Z,9.30
2023-02-13T11:46:24.165Z,7.60
2023-02-13T11:49:27.651Z,6.87
2023-02-13T11:52:26.242Z,8.00
2023-02-13T11:55:35.075Z,7.13
2023-02-13T11:58:25.954Z,8.15
2023-02-13T12:01:20.546Z,7.20
2023-02-13T12:04:16.531Z,7.53
2023-02-13T12:07:04.839Z,7.57
2023-02-13T12:09:59.434Z,7.30
2023-02-13T12:13:09.555Z,7.80
2023-02-13T12:16:26.853Z,8.52
2023-02-13T12:19:18.807Z,8.30
2023-02-13T12:22:32.713Z,7.70
2023-02-13T12:25:43.650Z,8.20
2023-02-13T12:28:54.430Z,8.85
2023-02-13T12:31:51.257Z,8.02
2023-02-13T12:35:10.804Z,14.57
2023-02-13T12:38:01.887Z,8.45
2023-02-13T12:40:53.233Z,26.67
2023-02-13T12:44:33.639Z,8.88
2023-02-13T12:47:30.150Z,8.32
2023-02-13T12:50:52.460Z,8.25
2023-02-13T12:54:11.813Z,7.72
2023-02-13T12:57:12.510Z,7.35
2023-02-13T13:00:26.026Z,13.25
2023-02-13T13:03:35.414Z,8.20
2023-02-13T13:06:35.810Z,7.15
2023-02-13T13:09:33.336Z,7.72
2023-02-13T13:12:30.746Z,7.72
2023-02-13T13:15:50.075Z,13.85
2023-02-13T13:18:54.250Z,9.52
2023-02-13T13:22:14.971Z,14.25
2023-02-13T13:25:24.702Z,8.32
2023-02-13T13:28:22.211Z,7.65
2023-02-13T13:31:08.398Z,11.75
2023-02-13T13:33:58.257Z,9.38
2023-02-13T13:36:50.233Z,8.10
2023-02-13T13:39:47.300Z,8.18
2023-02-13T13:42:41.756Z,7.43
2023-02-13T13:45:50.158Z,7.60
2023-02-13T13:48:54.517Z,8.07
2023-02-13T13:51:39.620Z,8.70
2023-02-13T13:54:33.157Z,7.55
2023-02-13T13:57:25.782Z,6.78
2023-02-13T14:00:14.014Z,6.70
2023-02-13T14:02:59.721Z,7.15
2023-02-13T14:06:12.451Z,6.82
2023-02-13T14:09:21.902Z,6.68
2023-02-13T14:12:46.795Z,7.20
2023-02-13T14:15:34.646Z,6.80
2023-02-13T14:18:23.838Z,6.57
2023-02-13T14:21:09.687Z,7.05
2023-02-13T14:23:55.179Z,6.68
2023-02-13T14:26:41.224Z,6.90
2023-02-13T14:29:29.966Z,6.80
2023-02-13T14:32:29.394Z,6.88
2023-02-13T14:35:22.619Z,6.50
2023-02-13T14:38:23.369Z,6.95
2023-02-13T14:41:46.802Z,6.95
2023-02-13T14:44:46.437Z,6.13
2023-02-13T14:47:37.233Z,6.78
2023-02-13T14:50:22.201Z,7.22
2023-02-13T14:53:16.818Z,6.97
2023-02-13T14:56:07.081Z,7.20
2023-02-13T14:59:15.772Z,7.47
2023-02-13T15:02:12.362Z,8.30
2023-02-13T15:05:00.038Z,9.40
2023-02-13T15:08:15.270Z,8.80
2023-02-13T15:11:00.865Z,9.40
2023-02-13T15:13:46.418Z,8.82
2023-02-13T15:16:31.903Z,9.05
2023-02-13T15:19:19.591Z,8.75
2023-02-13T15:22:06.359Z,8.88
2023-02-13T15:24:52.139Z,8.50
2023-02-13T15:27:46.592Z,10.50
2023-02-13T15:30:34.632Z,8.30
2023-02-13T15:33:22.602Z,8.43
2023-02-13T15:36:25.204Z,8.98
2023-02-13T15:39:17.057Z,10.00
2023-02-13T15:42:20.462Z,10.30
2023-02-13T15:45:13.066Z,9.43
2023-02-13T15:47:58.409Z,8.48
2023-02-13T15:50:44.280Z,8.55
2023-02-13T15:53:29.991Z,8.20
2023-02-13T15:56:15.326Z,7.93
2023-02-13T15:59:02.705Z,7.93
2023-02-13T16:01:50.888Z,9.40
2023-02-13T16:04:37.840Z,8.98
2023-02-13T16:07:23.061Z,7.28
2023-02-13T16:10:26.753Z,7.57
2023-02-13T16:13:18.014Z,7.30
2023-02-13T16:16:09.626Z,7.47
2023-02-13T16:18:54.846Z,10.25
2023-02-13T16:21:39.849Z,7.15
2023-02-13T16:24:26.743Z,7.25
2023-02-13T16:27:19.167Z,6.80
2023-02-13T16:30:19.296Z,6.57
2023-02-13T16:33:16.604Z,7.10
2023-02-13T16:36:11.041Z,6.70
2023-02-13T16:38:56.460Z,7.10
2023-02-13T16:41:41.442Z,7.63
2023-02-13T16:44:32.178Z,7.43
2023-02-13T16:47:23.402Z,7.57
2023-02-13T16:50:14.951Z,7.57
2023-02-13T16:53:03.281Z,7.60
2023-02-13T16:55:57.471Z,7.97
2023-02-13T16:58:42.869Z,8.50
2023-02-13T17:01:28.390Z,7.23
2023-02-13T17:04:22.650Z,8.00
2023-02-13T17:07:23.320Z,10.20
2023-02-13T17:10:23.023Z,20.73
2023-02-13T17:13:17.789Z,14.27
2023-02-13T17:16:02.838Z,10.67
2023-02-13T17:18:48.167Z,8.60
2023-02-13T17:21:33.648Z,8.40
2023-02-13T17:24:18.897Z,8.73
2023-02-13T17:27:04.187Z,8.33
2023-02-13T17:29:49.554Z,8.50
2023-02-13T17:32:36.242Z,10.60
2023-02-13T17:35:21.306Z,10.00
2023-02-13T17:38:08.722Z,9.70
2023-02-13T17:40:54.090Z,10.40
2023-02-13T17:43:39.193Z,10.33
2023-02-13T17:46:24.783Z,13.30
2023-02-13T17:49:10.104Z,18.73
2023-02-13T17:51:55.548Z,20.13
2023-02-13T17:54:41.214Z,17.53
2023-02-13T17:57:26.253Z,17.33
2023-02-13T18:00:12.035Z,17.80
2023-02-13T18:02:59.293Z,16.70
2023-02-13T18:05:48.168Z,16.70
2023-02-13T18:08:33.283Z,12.53
2023-02-13T18:11:18.663Z,12.50
2023-02-13T18:14:04.244Z,14.40
2023-02-13T18:16:49.238Z,15.67
2023-02-13T18:19:34.747Z,17.53
2023-02-13T18:22:19.935Z,18.53
2023-02-13T18:25:05.968Z,18.63
2023-02-13T18:27:51.247Z,18.23
2023-02-13T18:30:36.743Z,14.83
2023-02-13T18:33:21.930Z,13.03
2023-02-13T18:36:06.985Z,12.97
2023-02-13T18:38:52.403Z,13.43
2023-02-13T18:41:37.260Z,11.43
2023-02-13T18:44:28.433Z,11.23
2023-02-13T18:47:14.066Z,11.03
2023-02-13T18:49:59.584Z,11.50
2023-02-13T18:52:44.915Z,11.43
2023-02-13T18:55:30.438Z,15.30
2023-02-13T18:58:15.843Z,14.77
2023-02-13T19:01:09.157Z,17.47
2023-02-13T19:03:54.202Z,19.37
2023-02-13T19:06:40.805Z,18.37
2023-02-13T19:09:26.064Z,15.80
2023-02-13T19:12:11.730Z,13.43
2023-02-13T19:14:57.121Z,14.00
2023-02-13T19:17:42.242Z,15.20
2023-02-13T19:20:27.375Z,11.93
2023-02-13T19:23:12.834Z,18.70
2023-02-13T19:25:58.399Z,15.60
2023-02-13T19:28:43.884Z,19.13
2023-02-13T19:31:31.138Z,19.47
2023-02-13T19:34:16.487Z,17.60
2023-02-13T19:37:01.533Z,16.73
2023-02-13T19:39:46.992Z,19.67
2023-02-13T19:42:32.238Z,14.13
2023-02-13T19:45:17.542Z,11.63
2023-02-13T19:48:02.534Z,11.53
2023-02-13T19:50:48.025Z,11.47
2023-02-13T19:53:33.942Z,12.67
2023-02-13T19:56:19.470Z,11.20
2023-02-13T19:59:06.479Z,12.70
2023-02-13T20:01:51.666Z,9.77
2023-02-13T20:04:36.976Z,14.30
2023-02-13T20:07:22.171Z,17.10
2023-02-13T20:10:08.560Z,19.50
2023-02-13T20:12:54.034Z,19.27
2023-02-13T20:15:40.639Z,10.43
2023-02-13T20:18:25.784Z,11.57
2023-02-13T20:21:16.395Z,12.67
2023-02-13T20:24:02.106Z,16.20
2023-02-13T20:26:47.646Z,16.80
2023-02-13T20:29:32.653Z,21.17
2023-02-13T20:32:18.060Z,18.30
2023-02-13T20:35:03.693Z,14.57
2023-02-13T20:37:48.870Z,13.83
2023-02-13T20:40:34.366Z,13.90
2023-02-13T20:43:20.935Z,16.87
2023-02-13T20:46:07.157Z,12.90
2023-02-13T20:48:52.443Z,11.67
2023-02-13T20:51:37.868Z,10.07
2023-02-13T20:54:23.040Z,20.87
2023-02-13T20:57:08.542Z,14.37
2023-02-13T20:59:53.811Z,16.97
2023-02-13T21:02:39.350Z,19.73
2023-02-13T21:05:24.671Z,18.63
2023-02-13T21:08:10.316Z,19.23
2023-02-13T21:11:01.158Z,19.80
2023-02-13T21:13:47.124Z,18.93
2023-02-13T21:16:38.249Z,18.23
2023-02-13T21:19:23.505Z,15.33
2023-02-13T21:22:08.565Z,18.07
2023-02-13T21:24:54.123Z,16.47
2023-02-13T21:27:39.426Z,14.73
2023-02-13T21:30:24.802Z,16.30
2023-02-13T21:33:10.218Z,14.47
2023-02-13T21:36:07.671Z,14.37
2023-02-13T21:38:53.027Z,14.10
2023-02-13T21:41:43.169Z,16.40
2023-02-13T21:44:28.326Z,19.63
2023-02-13T21:47:13.753Z,20.03
2023-02-13T21:49:59.110Z,21.47
2023-02-13T21:52:44.732Z,18.53
2023-02-13T21:55:30.021Z,16.57
2023-02-13T21:58:15.312Z,16.87
2023-02-13T22:01:01.752Z,18.73
2023-02-13T22:03:48.056Z,15.03
2023-02-13T22:06:35.892Z,15.23
2023-02-13T22:09:21.840Z,16.17
2023-02-13T22:12:07.208Z,17.47
2023-02-13T22:14:54.265Z,20.93
2023-02-13T22:17:39.482Z,18.20
2023-02-13T22:20:25.518Z,17.97
2023-02-13T22:23:10.728Z,17.53
2023-02-13T22:25:56.176Z,22.20
2023-02-13T22:28:41.718Z,20.30
2023-02-13T22:31:27.920Z,33.30
2023-02-13T22:34:13.534Z,20.57
2023-02-13T22:36:58.944Z,22.40
2023-02-13T22:39:44.191Z,23.70
2023-02-13T22:42:29.817Z,22.97
2023-02-13T22:45:15.071Z,19.10
2023-02-13T22:48:00.615Z,19.20
2023-02-13T22:50:45.684Z,16.20
2023-02-13T22:53:31.788Z,15.73
2023-02-13T22:56:17.205Z,17.10
2023-02-13T22:59:02.620Z,13.53
2023-02-13T23:01:48.018Z,17.17
2023-02-13T23:04:33.447Z,17.60
2023-02-13T23:07:18.837Z,16.90
2023-02-13T23:10:04.996Z,18.23
2023-02-13T23:12:49.981Z,17.43
2023-02-13T23:15:36.267Z,17.00
2023-02-13T23:18:21.373Z,18.60
2023-02-13T23:21:07.747Z,19.70
2023-02-13T23:23:53.213Z,17.40
2023-02-13T23:26:38.135Z,19.57
2023-02-13T23:29:23.661Z,21.07
2023-02-13T23:32:09.136Z,20.63
2023-02-13T23:34:54.497Z,19.47
2023-02-13T23:37:39.698Z,19.03
2023-02-13T23:40:24.955Z,17.90
2023-02-13T23:43:10.451Z,16.90
2023-02-13T23:45:55.931Z,17.83
2023-02-13T23:48:41.375Z,16.73
2023-02-13T23:51:26.869Z,16.93
2023-02-13T23:54:17.210Z,17.87
2023-02-13T23:57:02.562Z,20.93
2023-02-13T23:59:47.464Z,19.53
